createdAt,value
2018-04-30T00:00:41.853Z,63.06
2018-04-30T00:01:41.853Z,63.06
2018-04-30T00:02:41.886Z,63.06
2018-04-30T00:03:41.892Z,63.92
2018-04-30T00:04:41.928Z,63.54
2018-04-30T00:05:41.934Z,63.79
2018-04-30T00:06:41.954Z,63.51
2018-04-30T00:07:41.981Z,63.99
2018-04-30T00:08:42.020Z,64.02
2018-04-30T00:09:42.034Z,64.40
2018-04-30T00:10:42.047Z,63.54
2018-04-30T00:11:42.100Z,63.34
2018-04-30T00:12:42.084Z,62.87
2018-04-30T00:13:42.168Z,63.25
2018-04-30T00:14:42.124Z,62.87
2018-04-30T00:15:42.145Z,63.15
2018-04-30T00:16:42.166Z,62.87
2018-04-30T00:17:42.200Z,62.90
2018-04-30T00:18:42.217Z,63.15
2018-04-30T00:19:42.274Z,63.44
2018-04-30T00:20:42.246Z,63.34
2018-04-30T00:21:42.291Z,62.96
2018-04-30T00:22:42.304Z,63.64
2018-04-30T00:23:42.319Z,64.12
2018-04-30T00:24:42.360Z,64.31
2018-04-30T00:25:42.353Z,64.69
2018-04-30T00:26:42.380Z,64.21
2018-04-30T00:27:42.543Z,63.82
2018-04-30T00:28:42.449Z,64.21
2018-04-30T00:29:42.443Z,64.89
2018-04-30T00:30:42.468Z,65.17
2018-04-30T00:31:42.485Z,65.37
2018-04-30T00:32:42.645Z,64.50
2018-04-30T00:33:42.536Z,64.69
2018-04-30T00:34:42.545Z,64.50
2018-04-30T00:35:42.569Z,64.59
2018-04-30T00:36:42.678Z,65.08
2018-04-30T00:37:42.611Z,64.69
2018-04-30T00:38:42.640Z,65.08
2018-04-30T00:39:42.719Z,65.08
2018-04-30T00:40:42.742Z,65.08
2018-04-30T00:41:42.697Z,65.56
2018-04-30T00:42:42.722Z,65.66
2018-04-30T00:43:42.803Z,65.85
2018-04-30T00:44:42.765Z,65.53
2018-04-30T00:45:42.789Z,65.75
2018-04-30T00:46:42.801Z,66.01
2018-04-30T00:47:42.821Z,65.24
2018-04-30T00:48:42.857Z,64.79
2018-04-30T00:49:42.889Z,64.59
2018-04-30T00:50:42.946Z,64.31
2018-04-30T00:51:42.909Z,64.21
2018-04-30T00:52:42.996Z,64.69
2018-04-30T00:53:43.067Z,63.92
2018-04-30T00:54:42.972Z,64.40
2018-04-30T00:55:42.999Z,64.40
2018-04-30T00:56:43.011Z,64.89
2018-04-30T00:57:43.036Z,64.98
2018-04-30T00:58:43.081Z,65.66
2018-04-30T00:59:43.082Z,65.56
2018-04-30T01:00:43.099Z,65.66
2018-04-30T01:01:43.132Z,65.85
2018-04-30T01:02:43.224Z,65.46
2018-04-30T01:03:43.167Z,65.66
2018-04-30T01:04:43.174Z,66.04
2018-04-30T01:05:43.204Z,66.33
2018-04-30T01:06:43.278Z,66.33
2018-04-30T01:07:43.304Z,66.24
2018-04-30T01:08:43.265Z,66.62
2018-04-30T01:09:43.285Z,66.33
2018-04-30T01:10:43.325Z,66.04
2018-04-30T01:11:43.328Z,66.97
2018-04-30T01:12:43.432Z,66.68
2018-04-30T01:13:43.388Z,66.39
2018-04-30T01:14:43.393Z,67.26
2018-04-30T01:15:43.621Z,67.26
2018-04-30T01:16:43.433Z,67.16
2018-04-30T01:17:43.457Z,67.74
2018-04-30T01:18:43.482Z,67.83
2018-04-30T01:19:43.566Z,67.83
2018-04-30T01:20:43.523Z,67.83
2018-04-30T01:21:43.690Z,67.83
2018-04-30T01:22:43.561Z,68.03
2018-04-30T01:23:43.591Z,67.83
2018-04-30T01:24:43.605Z,67.65
2018-04-30T01:25:43.627Z,67.87
2018-04-30T01:26:43.644Z,67.87
2018-04-30T01:27:43.672Z,67.10
2018-04-30T01:28:43.694Z,67.77
2018-04-30T01:29:43.739Z,68.22
2018-04-30T01:30:43.740Z,67.83
2018-04-30T01:31:43.752Z,68.70
2018-04-30T01:32:43.848Z,68.41
2018-04-30T01:33:43.792Z,70.11
2018-04-30T01:34:43.815Z,70.30
2018-04-30T01:35:43.833Z,69.82
2018-04-30T01:36:43.859Z,72.03
2018-04-30T01:37:43.878Z,72.19
2018-04-30T01:38:43.897Z,73.06
2018-04-30T01:39:43.921Z,74.27
2018-04-30T01:40:43.997Z,74.46
2018-04-30T01:41:44.159Z,74.40
2018-04-30T01:42:43.980Z,74.17
2018-04-30T01:43:44.004Z,75.52
2018-04-30T01:44:44.035Z,76.15
2018-04-30T01:45:44.044Z,76.64
2018-04-30T01:46:44.116Z,76.92
2018-04-30T01:47:44.088Z,76.92
2018-04-30T01:48:44.173Z,77.11
2018-04-30T01:49:44.126Z,77.31
2018-04-30T01:50:44.243Z,76.64
2018-04-30T01:51:44.194Z,76.19
2018-04-30T01:52:44.208Z,76.57
2018-04-30T01:53:44.208Z,75.81
2018-04-30T01:54:44.258Z,75.42
2018-04-30T01:55:44.253Z,75.42
2018-04-30T01:56:44.393Z,75.52
2018-04-30T01:57:44.300Z,75.04
2018-04-30T01:58:44.341Z,74.94
2018-04-30T01:59:44.343Z,74.69
2018-04-30T02:00:44.356Z,74.02
2018-04-30T02:01:44.381Z,74.50
2018-04-30T02:02:44.393Z,74.21
2018-04-30T02:03:44.415Z,74.11
2018-04-30T02:04:44.436Z,73.83
2018-04-30T02:05:44.527Z,73.25
2018-04-30T02:06:44.514Z,73.63
2018-04-30T02:07:44.616Z,73.35
2018-04-30T02:08:44.524Z,73.44
2018-04-30T02:09:44.560Z,73.44
2018-04-30T02:10:44.567Z,73.25
2018-04-30T02:11:44.630Z,73.35
2018-04-30T02:12:44.624Z,72.80
2018-04-30T02:13:44.656Z,71.26
2018-04-30T02:14:44.705Z,71.65
2018-04-30T02:15:44.678Z,71.49
2018-04-30T02:16:44.684Z,71.40
2018-04-30T02:17:44.725Z,71.08
2018-04-30T02:18:44.728Z,71.46
2018-04-30T02:19:44.744Z,72.61
2018-04-30T02:20:44.778Z,72.13
2018-04-30T02:21:44.786Z,71.75
2018-04-30T02:22:44.816Z,71.94
2018-04-30T02:23:44.828Z,72.52
2018-04-30T02:24:44.904Z,72.42
2018-04-30T02:25:44.865Z,72.13
2018-04-30T02:26:44.941Z,72.03
2018-04-30T02:27:44.908Z,72.23
2018-04-30T02:28:44.943Z,71.55
2018-04-30T02:29:44.952Z,71.75
2018-04-30T02:30:44.976Z,71.75
2018-04-30T02:31:45.000Z,72.52
2018-04-30T02:32:45.082Z,71.65
2018-04-30T02:33:45.040Z,71.65
2018-04-30T02:34:45.065Z,71.55
2018-04-30T02:35:45.077Z,71.26
2018-04-30T02:36:45.109Z,70.78
2018-04-30T02:37:45.264Z,71.17
2018-04-30T02:38:45.138Z,72.13
2018-04-30T02:39:45.160Z,72.52
2018-04-30T02:40:45.177Z,72.42
2018-04-30T02:41:45.200Z,72.32
2018-04-30T02:42:45.234Z,73.19
2018-04-30T02:43:45.254Z,74.40
2018-04-30T02:44:45.277Z,75.90
2018-04-30T02:45:45.287Z,75.46
2018-04-30T02:46:45.302Z,74.98
2018-04-30T02:47:45.336Z,74.79
2018-04-30T02:48:45.354Z,74.60
2018-04-30T02:49:45.374Z,75.23
2018-04-30T02:50:45.451Z,74.79
2018-04-30T02:51:45.499Z,74.02
2018-04-30T02:52:45.461Z,73.44
2018-04-30T02:53:45.483Z,73.54
2018-04-30T02:54:45.469Z,73.06
2018-04-30T02:55:45.514Z,73.06
2018-04-30T02:56:45.512Z,73.15
2018-04-30T02:57:45.554Z,73.83
2018-04-30T02:58:45.577Z,73.44
2018-04-30T02:59:45.630Z,73.35
2018-04-30T03:00:45.639Z,73.15
2018-04-30T03:01:45.709Z,73.15
2018-04-30T03:02:45.635Z,73.44
2018-04-30T03:03:45.661Z,73.25
2018-04-30T03:04:45.676Z,73.44
2018-04-30T03:05:45.707Z,73.25
2018-04-30T03:06:45.751Z,74.02
2018-04-30T03:07:45.785Z,74.02
2018-04-30T03:08:45.761Z,75.27
2018-04-30T03:09:45.841Z,74.37
2018-04-30T03:10:45.806Z,74.69
2018-04-30T03:11:45.838Z,74.55
2018-04-30T03:12:45.863Z,75.52
2018-04-30T03:13:45.872Z,75.52
2018-04-30T03:14:45.892Z,75.62
2018-04-30T03:15:45.909Z,74.94
2018-04-30T03:16:45.936Z,74.85
2018-04-30T03:17:45.960Z,75.62
2018-04-30T03:18:45.985Z,75.13
2018-04-30T03:19:46.001Z,75.81
2018-04-30T03:20:46.009Z,75.42
2018-04-30T03:21:46.085Z,75.52
2018-04-30T03:22:46.059Z,75.04
2018-04-30T03:23:46.102Z,74.94
2018-04-30T03:24:46.101Z,75.04
2018-04-30T03:25:46.114Z,74.85
2018-04-30T03:26:46.219Z,75.52
2018-04-30T03:27:46.153Z,75.52
2018-04-30T03:28:46.185Z,75.42
2018-04-30T03:29:46.203Z,75.81
2018-04-30T03:30:46.218Z,75.52
2018-04-30T03:31:46.236Z,75.90
2018-04-30T03:32:46.266Z,76.29
2018-04-30T03:33:46.276Z,76.73
2018-04-30T03:34:46.313Z,76.67
2018-04-30T03:35:46.343Z,76.48
2018-04-30T03:36:46.354Z,76.44
2018-04-30T03:37:46.365Z,76.44
2018-04-30T03:38:46.382Z,76.54
2018-04-30T03:39:46.410Z,76.44
2018-04-30T03:40:46.446Z,76.77
2018-04-30T03:41:46.550Z,77.21
2018-04-30T03:42:46.459Z,76.64
2018-04-30T03:43:46.485Z,76.57
2018-04-30T03:44:46.603Z,76.29
2018-04-30T03:45:46.585Z,75.90
2018-04-30T03:46:46.545Z,76.00
2018-04-30T03:47:46.576Z,75.81
2018-04-30T03:48:46.594Z,75.71
2018-04-30T03:49:46.646Z,75.42
2018-04-30T03:50:46.661Z,75.42
2018-04-30T03:51:46.652Z,76.67
2018-04-30T03:52:46.674Z,76.19
2018-04-30T03:53:46.689Z,76.00
2018-04-30T03:54:46.776Z,75.90
2018-04-30T03:55:46.729Z,75.32
2018-04-30T03:56:46.749Z,75.52
2018-04-30T03:57:46.783Z,75.52
2018-04-30T03:58:46.811Z,75.23
2018-04-30T03:59:46.834Z,75.13
2018-04-30T04:00:46.835Z,75.04
2018-04-30T04:01:46.856Z,75.13
2018-04-30T04:02:46.880Z,75.52
2018-04-30T04:03:46.914Z,75.04
2018-04-30T04:04:46.915Z,75.62
2018-04-30T04:05:46.962Z,75.62
2018-04-30T04:06:46.965Z,75.81
2018-04-30T04:07:47.056Z,75.81
2018-04-30T04:08:47.002Z,75.81
2018-04-30T04:09:47.034Z,75.62
2018-04-30T04:10:47.116Z,75.52
2018-04-30T04:11:47.057Z,75.90
2018-04-30T04:12:47.088Z,76.39
2018-04-30T04:13:47.106Z,76.48
2018-04-30T04:14:47.127Z,75.71
2018-04-30T04:15:47.143Z,75.71
2018-04-30T04:16:47.208Z,75.62
2018-04-30T04:17:47.203Z,74.75
2018-04-30T04:18:47.199Z,75.04
2018-04-30T04:19:47.248Z,74.94
2018-04-30T04:20:47.298Z,75.71
2018-04-30T04:21:47.286Z,74.85
2018-04-30T04:22:47.289Z,74.75
2018-04-30T04:23:47.311Z,75.62
2018-04-30T04:24:47.383Z,75.23
2018-04-30T04:25:47.412Z,75.62
2018-04-30T04:26:47.382Z,75.42
2018-04-30T04:27:47.389Z,75.90
2018-04-30T04:28:47.408Z,75.62
2018-04-30T04:29:47.433Z,74.98
2018-04-30T04:30:47.453Z,75.62
2018-04-30T04:31:47.462Z,76.92
2018-04-30T04:32:47.492Z,77.11
2018-04-30T04:33:47.590Z,75.71
2018-04-30T04:34:47.529Z,75.04
2018-04-30T04:35:47.548Z,75.65
2018-04-30T04:36:47.647Z,74.98
2018-04-30T04:37:47.691Z,74.79
2018-04-30T04:38:47.611Z,73.92
2018-04-30T04:39:47.646Z,74.60
2018-04-30T04:40:47.675Z,74.60
2018-04-30T04:41:47.769Z,74.30
2018-04-30T04:42:47.866Z,74.21
2018-04-30T04:43:47.716Z,73.92
2018-04-30T04:44:47.768Z,74.40
2018-04-30T04:45:47.763Z,74.11
2018-04-30T04:46:47.782Z,73.38
2018-04-30T04:47:47.824Z,73.77
2018-04-30T04:48:47.838Z,73.67
2018-04-30T04:49:47.854Z,74.44
2018-04-30T04:50:47.862Z,75.07
2018-04-30T04:51:47.876Z,76.23
2018-04-30T04:52:47.969Z,76.52
2018-04-30T04:53:48.009Z,74.92
2018-04-30T04:54:47.976Z,73.61
2018-04-30T04:55:48.006Z,72.39
2018-04-30T04:56:47.989Z,70.28
2018-04-30T04:57:48.018Z,70.02
2018-04-30T04:58:48.033Z,69.64
2018-04-30T04:59:48.183Z,68.61
2018-04-30T05:00:48.076Z,68.26
2018-04-30T05:01:48.099Z,66.91
2018-04-30T05:02:48.158Z,68.32
2018-04-30T05:03:48.148Z,67.58
2018-04-30T05:04:48.168Z,65.34
2018-04-30T05:05:48.187Z,63.98
2018-04-30T05:06:48.343Z,63.43
2018-04-30T05:07:48.236Z,63.73
2018-04-30T05:08:48.320Z,63.24
2018-04-30T05:09:48.287Z,61.83
2018-04-30T05:10:48.323Z,61.44
2018-04-30T05:11:48.327Z,60.72
2018-04-30T05:12:48.350Z,59.01
2018-04-30T05:13:48.590Z,58.27
2018-04-30T05:14:48.483Z,57.81
2018-04-30T05:15:48.455Z,56.98
2018-04-30T05:16:48.445Z,58.31
2018-04-30T05:17:48.471Z,59.60
2018-04-30T05:18:48.496Z,60.54
2018-04-30T05:19:48.522Z,61.25
2018-04-30T05:20:48.645Z,63.02
2018-04-30T05:21:48.575Z,64.50
2018-04-30T05:22:48.596Z,66.14
2018-04-30T05:23:48.626Z,65.37
2018-04-30T05:24:48.638Z,66.14
2018-04-30T05:25:48.689Z,65.88
2018-04-30T05:26:48.695Z,65.69
2018-04-30T05:27:48.717Z,65.50
2018-04-30T05:28:48.732Z,66.04
2018-04-30T05:29:48.860Z,66.24
2018-04-30T05:30:48.889Z,66.33
2018-04-30T05:31:48.809Z,67.65
2018-04-30T05:32:48.834Z,67.74
2018-04-30T05:33:48.914Z,67.65
2018-04-30T05:34:51.443Z,68.32
2018-04-30T05:35:48.961Z,69.25
2018-04-30T05:36:48.969Z,69.70
2018-04-30T05:37:48.965Z,69.60
2018-04-30T05:38:48.963Z,69.64
2018-04-30T05:39:48.989Z,69.99
2018-04-30T05:40:49.007Z,70.37
2018-04-30T05:41:49.105Z,69.99
2018-04-30T05:42:49.055Z,69.60
2018-04-30T05:43:49.074Z,69.54
2018-04-30T05:44:49.100Z,69.79
2018-04-30T05:45:49.142Z,70.76
2018-04-30T05:46:49.138Z,71.14
2018-04-30T05:47:49.171Z,71.04
2018-04-30T05:48:49.190Z,69.73
2018-04-30T05:49:49.214Z,70.50
2018-04-30T05:50:49.297Z,70.12
2018-04-30T05:51:49.316Z,71.24
2018-04-30T05:52:49.274Z,71.34
2018-04-30T05:53:49.425Z,71.72
2018-04-30T05:54:49.316Z,71.04
2018-04-30T05:55:49.344Z,70.76
2018-04-30T05:56:49.371Z,70.95
2018-04-30T05:57:49.469Z,71.34
2018-04-30T05:58:49.432Z,70.76
2018-04-30T05:59:49.462Z,70.41
2018-04-30T06:00:49.632Z,69.79
2018-04-30T06:01:49.485Z,70.37
2018-04-30T06:02:49.565Z,70.86
2018-04-30T06:03:49.535Z,70.86
2018-04-30T06:04:49.554Z,72.90
2018-04-30T06:05:49.624Z,72.55
2018-04-30T06:06:49.652Z,73.28
2018-04-30T06:07:49.605Z,72.36
2018-04-30T06:08:49.626Z,72.65
2018-04-30T06:09:49.690Z,73.09
2018-04-30T06:10:49.678Z,72.65
2018-04-30T06:11:49.709Z,72.17
2018-04-30T06:12:49.716Z,72.80
2018-04-30T06:13:49.743Z,72.84
2018-04-30T06:14:49.759Z,70.95
2018-04-30T06:15:49.794Z,71.34
2018-04-30T06:16:49.864Z,71.72
2018-04-30T06:17:49.848Z,70.56
2018-04-30T06:18:49.849Z,72.07
2018-04-30T06:19:49.891Z,71.24
2018-04-30T06:20:49.886Z,70.56
2018-04-30T06:21:49.910Z,70.86
2018-04-30T06:22:50.094Z,70.47
2018-04-30T06:23:49.962Z,70.50
2018-04-30T06:24:49.974Z,69.93
2018-04-30T06:25:50.003Z,71.49
2018-04-30T06:26:50.147Z,71.30
2018-04-30T06:27:50.052Z,71.34
2018-04-30T06:28:50.078Z,71.49
2018-04-30T06:29:50.086Z,70.76
2018-04-30T06:30:50.119Z,70.86
2018-04-30T06:31:50.144Z,70.28
2018-04-30T06:32:50.259Z,69.89
2018-04-30T06:33:50.261Z,69.22
2018-04-30T06:34:50.215Z,70.09
2018-04-30T06:35:50.289Z,71.01
2018-04-30T06:36:50.240Z,71.49
2018-04-30T06:37:50.264Z,72.52
2018-04-30T06:38:50.374Z,72.52
2018-04-30T06:39:50.311Z,72.61
2018-04-30T06:40:50.333Z,73.19
2018-04-30T06:41:50.365Z,72.90
2018-04-30T06:42:50.371Z,73.77
2018-04-30T06:43:50.503Z,74.69
2018-04-30T06:44:50.412Z,75.42
2018-04-30T06:45:50.470Z,75.84
2018-04-30T06:46:50.575Z,75.07
2018-04-30T06:47:50.499Z,74.98
2018-04-30T06:48:50.521Z,75.07
2018-04-30T06:49:50.723Z,75.07
2018-04-30T06:50:50.768Z,75.46
2018-04-30T06:51:50.569Z,75.56
2018-04-30T06:52:50.588Z,75.65
2018-04-30T06:53:50.699Z,76.48
2018-04-30T06:54:50.653Z,76.57
2018-04-30T06:55:50.646Z,75.75
2018-04-30T06:56:50.740Z,75.81
2018-04-30T06:57:50.689Z,76.57
2018-04-30T06:58:50.709Z,77.01
2018-04-30T06:59:50.751Z,76.82
2018-04-30T07:00:50.826Z,76.54
2018-04-30T07:01:50.786Z,76.44
2018-04-30T07:02:50.844Z,76.48
2018-04-30T07:03:50.834Z,76.48
2018-04-30T07:04:50.836Z,76.54
2018-04-30T07:05:50.868Z,75.52
2018-04-30T07:06:50.887Z,75.42
2018-04-30T07:07:50.907Z,74.94
2018-04-30T07:08:50.927Z,75.00
2018-04-30T07:09:50.940Z,74.29
2018-04-30T07:10:50.965Z,74.96
2018-04-30T07:11:51.038Z,73.33
2018-04-30T07:12:51.018Z,73.04
2018-04-30T07:13:51.083Z,72.66
2018-04-30T07:14:51.067Z,71.98
2018-04-30T07:15:51.073Z,72.28
2018-04-30T07:16:51.088Z,71.89
2018-04-30T07:17:51.189Z,72.47
2018-04-30T07:18:51.126Z,71.86
2018-04-30T07:19:51.171Z,71.66
2018-04-30T07:20:51.171Z,72.37
2018-04-30T07:21:51.191Z,70.93
2018-04-30T07:22:51.213Z,71.80
2018-04-30T07:23:51.267Z,71.61
2018-04-30T07:24:51.255Z,71.86
2018-04-30T07:25:51.280Z,72.28
2018-04-30T07:26:51.300Z,72.18
2018-04-30T07:27:51.370Z,71.98
2018-04-30T07:28:51.409Z,72.37
2018-04-30T07:29:51.434Z,72.14
2018-04-30T07:30:51.387Z,71.98
2018-04-30T07:31:51.405Z,71.22
2018-04-30T07:32:51.424Z,71.28
2018-04-30T07:33:51.441Z,71.51
2018-04-30T07:34:51.498Z,70.93
2018-04-30T07:35:51.485Z,70.20
2018-04-30T07:36:51.567Z,70.01
2018-04-30T07:37:51.524Z,70.01
2018-04-30T07:38:51.558Z,69.91
2018-04-30T07:39:51.570Z,70.87
2018-04-30T07:40:51.631Z,70.10
2018-04-30T07:41:51.677Z,69.75
2018-04-30T07:42:51.683Z,70.14
2018-04-30T07:43:51.655Z,69.91
2018-04-30T07:44:51.727Z,70.20
2018-04-30T07:45:51.705Z,69.56
2018-04-30T07:46:51.719Z,68.89
2018-04-30T07:47:51.821Z,69.46
2018-04-30T07:48:51.760Z,69.08
2018-04-30T07:49:51.766Z,68.60
2018-04-30T07:50:51.858Z,68.25
2018-04-30T07:51:51.829Z,68.12
2018-04-30T07:52:51.831Z,69.18
2018-04-30T07:53:51.859Z,67.96
2018-04-30T07:54:51.873Z,67.86
2018-04-30T07:55:51.941Z,67.96
2018-04-30T07:56:51.926Z,66.42
2018-04-30T07:57:51.936Z,66.52
2018-04-30T07:58:51.979Z,66.33
2018-04-30T07:59:51.985Z,65.94
2018-04-30T08:00:52.002Z,66.14
2018-04-30T08:01:52.096Z,66.23
2018-04-30T08:02:52.069Z,65.91
2018-04-30T08:03:52.152Z,66.97
2018-04-30T08:04:52.085Z,67.07
2018-04-30T08:05:52.113Z,66.52
2018-04-30T08:06:52.129Z,66.46
2018-04-30T08:07:52.216Z,67.19
2018-04-30T08:08:52.184Z,66.55
2018-04-30T08:09:52.192Z,65.37
2018-04-30T08:10:52.214Z,65.66
2018-04-30T08:11:52.247Z,65.81
2018-04-30T08:12:52.257Z,65.91
2018-04-30T08:13:52.276Z,65.56
2018-04-30T08:14:52.299Z,65.37
2018-04-30T08:15:52.317Z,65.56
2018-04-30T08:16:52.359Z,65.46
2018-04-30T08:17:52.362Z,65.01
2018-04-30T08:18:52.384Z,64.43
2018-04-30T08:19:52.495Z,64.02
2018-04-30T08:20:52.446Z,64.05
2018-04-30T08:21:52.467Z,64.25
2018-04-30T08:22:52.534Z,63.18
2018-04-30T08:23:52.579Z,62.93
2018-04-30T08:24:52.570Z,61.68
2018-04-30T08:25:52.540Z,61.42
2018-04-30T08:26:52.595Z,60.81
2018-04-30T08:27:52.678Z,60.24
2018-04-30T08:28:52.600Z,60.33
2018-04-30T08:29:52.790Z,59.75
2018-04-30T08:30:52.647Z,59.88
2018-04-30T08:31:52.743Z,59.37
2018-04-30T08:32:52.693Z,59.37
2018-04-30T08:33:52.709Z,59.17
2018-04-30T08:34:52.758Z,59.66
2018-04-30T08:35:52.758Z,59.56
2018-04-30T08:36:52.772Z,59.37
2018-04-30T08:37:52.856Z,59.82
2018-04-30T08:38:52.857Z,60.88
2018-04-30T08:39:52.904Z,60.97
2018-04-30T08:40:52.861Z,60.97
2018-04-30T08:41:52.881Z,61.74
2018-04-30T08:42:52.910Z,61.84
2018-04-30T08:43:52.927Z,62.61
2018-04-30T08:44:52.946Z,62.19
2018-04-30T08:45:52.999Z,63.15
2018-04-30T08:46:52.997Z,62.90
2018-04-30T08:47:53.015Z,63.06
2018-04-30T08:48:53.044Z,62.90
2018-04-30T08:49:53.053Z,62.77
2018-04-30T08:50:53.078Z,62.41
2018-04-30T08:51:53.117Z,61.94
2018-04-30T08:52:53.252Z,61.58
2018-04-30T08:53:53.143Z,61.87
2018-04-30T08:54:53.310Z,62.54
2018-04-30T08:55:53.188Z,62.83
2018-04-30T08:56:53.213Z,62.26
2018-04-30T08:57:53.282Z,62.38
2018-04-30T08:58:53.256Z,61.52
2018-04-30T08:59:53.289Z,62.68
2018-04-30T09:00:53.301Z,61.81
2018-04-30T09:01:53.413Z,62.48
2018-04-30T09:02:53.347Z,62.48
2018-04-30T09:03:53.388Z,60.85
2018-04-30T09:04:53.460Z,61.04
2018-04-30T09:05:53.466Z,61.04
2018-04-30T09:06:53.554Z,60.37
2018-04-30T09:07:53.443Z,60.27
2018-04-30T09:08:53.473Z,59.31
2018-04-30T09:09:53.494Z,59.79
2018-04-30T09:10:53.513Z,59.99
2018-04-30T09:11:53.531Z,59.31
2018-04-30T09:12:53.559Z,58.92
2018-04-30T09:13:53.670Z,59.86
2018-04-30T09:14:53.675Z,59.95
2018-04-30T09:15:53.677Z,60.21
2018-04-30T09:16:53.656Z,60.43
2018-04-30T09:17:53.709Z,59.12
2018-04-30T09:18:53.730Z,58.92
2018-04-30T09:19:53.711Z,58.92
2018-04-30T09:20:53.733Z,59.76
2018-04-30T09:21:53.838Z,60.88
2018-04-30T09:22:53.788Z,61.46
2018-04-30T09:23:53.830Z,60.88
2018-04-30T09:24:53.824Z,61.36
2018-04-30T09:25:53.840Z,61.65
2018-04-30T09:26:53.853Z,62.29
2018-04-30T09:27:53.898Z,62.68
2018-04-30T09:28:53.912Z,62.29
2018-04-30T09:29:53.927Z,62.68
2018-04-30T09:30:53.950Z,61.52
2018-04-30T09:31:53.980Z,62.77
2018-04-30T09:32:54.081Z,61.24
2018-04-30T09:33:54.009Z,61.05
2018-04-30T09:34:54.087Z,61.43
2018-04-30T09:35:54.148Z,61.49
2018-04-30T09:36:54.141Z,61.98
2018-04-30T09:37:54.095Z,62.74
2018-04-30T09:38:54.110Z,62.16
2018-04-30T09:39:54.141Z,62.74
2018-04-30T09:40:54.165Z,63.00
2018-04-30T09:41:54.170Z,63.48
2018-04-30T09:42:54.267Z,62.74
2018-04-30T09:43:54.223Z,61.52
2018-04-30T09:44:54.301Z,61.14
2018-04-30T09:45:54.256Z,61.49
2018-04-30T09:46:54.288Z,61.78
2018-04-30T09:47:54.381Z,61.33
2018-04-30T09:48:54.326Z,60.88
2018-04-30T09:49:54.418Z,60.85
2018-04-30T09:50:54.379Z,60.60
2018-04-30T09:51:54.385Z,60.60
2018-04-30T09:52:54.450Z,59.25
2018-04-30T09:53:54.424Z,59.09
2018-04-30T09:54:54.576Z,58.89
2018-04-30T09:55:54.552Z,59.02
2018-04-30T09:56:54.551Z,58.13
2018-04-30T09:57:54.561Z,58.13
2018-04-30T09:58:54.543Z,57.84
2018-04-30T09:59:54.545Z,58.13
2018-04-30T10:00:54.602Z,57.55
2018-04-30T10:01:54.596Z,57.84
2018-04-30T10:02:54.616Z,57.45
2018-04-30T10:03:54.712Z,57.26
2018-04-30T10:04:54.702Z,56.81
2018-04-30T10:05:54.672Z,57.07
2018-04-30T10:06:54.710Z,57.52
2018-04-30T10:07:54.717Z,57.71
2018-04-30T10:08:54.740Z,57.04
2018-04-30T10:09:54.774Z,57.52
2018-04-30T10:10:55.025Z,57.68
2018-04-30T10:11:54.816Z,58.00
2018-04-30T10:12:54.847Z,58.52
2018-04-30T10:13:54.846Z,59.00
2018-04-30T10:14:54.882Z,59.22
2018-04-30T10:15:54.882Z,59.29
2018-04-30T10:16:54.908Z,59.22
2018-04-30T10:17:54.924Z,58.84
2018-04-30T10:18:55.061Z,58.55
2018-04-30T10:19:54.977Z,59.19
2018-04-30T10:20:55.102Z,60.25
2018-04-30T10:21:55.026Z,60.35
2018-04-30T10:22:55.028Z,59.58
2018-04-30T10:23:55.126Z,59.00
2018-04-30T10:24:55.223Z,59.19
2018-04-30T10:25:55.100Z,59.19
2018-04-30T10:26:55.128Z,58.81
2018-04-30T10:27:55.193Z,58.64
2018-04-30T10:28:55.164Z,57.88
2018-04-30T10:29:55.175Z,57.78
2018-04-30T10:30:55.256Z,58.17
2018-04-30T10:31:55.232Z,57.65
2018-04-30T10:32:55.240Z,57.97
2018-04-30T10:33:55.264Z,57.40
2018-04-30T10:34:55.283Z,57.97
2018-04-30T10:35:55.300Z,57.88
2018-04-30T10:36:55.330Z,57.52
2018-04-30T10:37:55.401Z,57.97
2018-04-30T10:38:55.371Z,56.76
2018-04-30T10:39:55.485Z,57.14
2018-04-30T10:40:55.455Z,56.76
2018-04-30T10:41:55.506Z,56.37
2018-04-30T10:42:55.477Z,57.14
2018-04-30T10:43:55.652Z,57.33
2018-04-30T10:44:55.506Z,58.74
2018-04-30T10:45:55.611Z,59.12
2018-04-30T10:46:55.655Z,58.36
2018-04-30T10:47:55.593Z,58.74
2018-04-30T10:48:55.595Z,58.77
2018-04-30T10:49:55.737Z,58.67
2018-04-30T10:50:55.675Z,58.03
2018-04-30T10:51:55.631Z,57.07
2018-04-30T10:52:55.659Z,56.78
2018-04-30T10:53:55.690Z,57.07
2018-04-30T10:54:55.767Z,57.10
2018-04-30T10:55:55.778Z,56.65
2018-04-30T10:56:55.755Z,55.85
2018-04-30T10:57:55.813Z,55.76
2018-04-30T10:58:55.825Z,56.23
2018-04-30T10:59:55.809Z,56.45
2018-04-30T11:00:55.958Z,56.45
2018-04-30T11:01:55.853Z,55.88
2018-04-30T11:02:55.881Z,54.85
2018-04-30T11:03:55.901Z,53.91
2018-04-30T11:04:55.917Z,53.91
2018-04-30T11:05:55.932Z,53.23
2018-04-30T11:06:55.961Z,52.66
2018-04-30T11:07:56.056Z,52.85
2018-04-30T11:08:56.011Z,53.69
2018-04-30T11:09:56.039Z,54.65
2018-04-30T11:10:56.043Z,55.11
2018-04-30T11:11:56.119Z,55.59
2018-04-30T11:12:56.248Z,56.52
2018-04-30T11:13:56.122Z,55.94
2018-04-30T11:14:56.153Z,55.20
2018-04-30T11:15:56.152Z,53.83
2018-04-30T11:16:56.190Z,55.37
2018-04-30T11:17:56.193Z,55.37
2018-04-30T11:18:56.219Z,56.30
2018-04-30T11:19:56.403Z,56.18
2018-04-30T11:20:56.283Z,56.37
2018-04-30T11:21:56.286Z,56.56
2018-04-30T11:22:56.310Z,56.78
2018-04-30T11:23:56.350Z,55.82
2018-04-30T11:24:56.357Z,56.37
2018-04-30T11:25:56.378Z,56.40
2018-04-30T11:26:56.404Z,56.27
2018-04-30T11:27:56.467Z,56.37
2018-04-30T11:28:56.433Z,56.21
2018-04-30T11:29:56.526Z,56.11
2018-04-30T11:30:56.472Z,56.08
2018-04-30T11:31:56.510Z,56.46
2018-04-30T11:32:56.523Z,57.33
2018-04-30T11:33:56.617Z,57.26
2018-04-30T11:34:56.571Z,56.66
2018-04-30T11:35:56.590Z,56.40
2018-04-30T11:36:56.628Z,55.85
2018-04-30T11:37:56.671Z,54.99
2018-04-30T11:38:56.652Z,54.60
2018-04-30T11:39:56.744Z,54.14
2018-04-30T11:40:56.691Z,53.09
2018-04-30T11:41:56.743Z,52.80
2018-04-30T11:42:56.866Z,53.76
2018-04-30T11:43:56.794Z,52.80
2018-04-30T11:44:56.775Z,51.64
2018-04-30T11:45:56.889Z,52.03
2018-04-30T11:46:56.873Z,51.93
2018-04-30T11:47:56.858Z,52.03
2018-04-30T11:48:56.925Z,51.62
2018-04-30T11:49:56.886Z,51.43
2018-04-30T11:50:56.901Z,51.04
2018-04-30T11:51:56.929Z,50.85
2018-04-30T11:52:57.025Z,50.97
2018-04-30T11:53:56.979Z,50.78
2018-04-30T11:54:57.060Z,50.20
2018-04-30T11:55:57.012Z,49.91
2018-04-30T11:56:57.053Z,50.04
2018-04-30T11:57:57.067Z,50.01
2018-04-30T11:58:57.103Z,50.49
2018-04-30T11:59:57.121Z,49.91
2018-04-30T12:00:57.118Z,50.97
2018-04-30T12:01:57.140Z,51.04
2018-04-30T12:02:57.172Z,50.78
2018-04-30T12:03:57.197Z,49.63
2018-04-30T12:04:57.371Z,50.10
2018-04-30T12:05:57.289Z,49.63
2018-04-30T12:06:57.340Z,49.82
2018-04-30T12:07:57.280Z,50.01
2018-04-30T12:08:57.308Z,49.36
2018-04-30T12:09:57.315Z,49.15
2018-04-30T12:10:57.349Z,50.10
2018-04-30T12:11:57.374Z,49.82
2018-04-30T12:12:57.439Z,49.63
2018-04-30T12:13:57.401Z,50.27
2018-04-30T12:14:57.422Z,52.17
2018-04-30T12:15:57.451Z,52.36
2018-04-30T12:16:57.538Z,52.20
2018-04-30T12:17:57.520Z,51.72
2018-04-30T12:18:57.535Z,51.98
2018-04-30T12:19:57.543Z,51.04
2018-04-30T12:20:57.582Z,51.23
2018-04-30T12:21:57.587Z,50.87
2018-04-30T12:22:57.597Z,50.20
2018-04-30T12:23:57.625Z,49.91
2018-04-30T12:24:57.658Z,49.72
2018-04-30T12:25:57.780Z,49.74
2018-04-30T12:26:57.683Z,49.00
2018-04-30T12:27:57.717Z,48.21
2018-04-30T12:28:57.785Z,49.36
2018-04-30T12:29:57.757Z,48.40
2018-04-30T12:30:57.841Z,48.30
2018-04-30T12:31:57.868Z,48.97
2018-04-30T12:32:57.854Z,48.28
2018-04-30T12:33:57.869Z,49.24
2018-04-30T12:34:57.853Z,48.02
2018-04-30T12:35:57.903Z,47.85
2018-04-30T12:36:58.071Z,48.30
2018-04-30T12:37:57.926Z,47.89
2018-04-30T12:38:57.939Z,48.02
2018-04-30T12:39:58.039Z,48.79
2018-04-30T12:40:58.103Z,48.28
2018-04-30T12:41:58.066Z,47.34
2018-04-30T12:42:58.033Z,47.82
2018-04-30T12:43:58.206Z,48.02
2018-04-30T12:44:58.108Z,47.15
2018-04-30T12:45:58.111Z,47.63
2018-04-30T12:46:58.153Z,47.51
2018-04-30T12:47:58.222Z,47.80
2018-04-30T12:48:58.181Z,48.57
2018-04-30T12:49:58.229Z,48.18
2018-04-30T12:50:58.204Z,47.82
2018-04-30T12:51:58.226Z,46.95
2018-04-30T12:52:58.275Z,45.90